Terminal Aerodrome Forecast
Issued by NWS Charleston, WV

Current Version | Previous Version | Graphics & Text | Print | Product List | Glossary On
Versions: 1 2 3 4 5 6 7 8 9 10 11 12 13 14 15 16 17 18 19 20 21 22 23 24 25 26 27 28 29
000
FTUS41 KRLX 041740
TAFEKN
TAF
KEKN 041740Z 0418/0518 VRB06KT P6SM VCTS SCT035CB
     FM050100 00000KT P6SM SCT045
     FM050500 00000KT 4SM BR SCT045
     FM050700 VRB03KT 1SM BR SCT001 SCT045
     FM050800 VRB03KT 1/4SM FG VV001
     FM051300 VRB03KT 1SM BR BKN002
     FM051400 VRB03KT P6SM SCT050=

USA.gov is the U.S. government's official web portal to all federal, state and local government web resources and services.